Time;durP1;ratioP1;P1;durP2;ratioP2;P2;SDS_P1;SDS_P2;PMS_P1;PMS_P2;Temp;Humidity;BMP_temperature;BMP_pressure;BME280_temperature;BME280_humidity;BME280_pressure;Samples;Min_cycle;Max_cycle;Signal;HPM_P1;HPM_P2
2023/11/21 00:00:35;;;;;;;20.33;5.97;;;;;;;;;;4990024;28;20257;-68
2023/11/21 00:03:00;;;;;;;12.67;6.23;;;;;;;;;;4990570;28;20374;-68
2023/11/21 00:05:25;;;;;;;20.07;6.70;;;;;;;;;;4968760;28;20281;-68
2023/11/21 00:07:51;;;;;;;13.30;6.60;;;;;;;;;;4982470;28;20312;-68
2023/11/21 00:10:16;;;;;;;15.23;7.28;;;;;;;;;;4988651;28;20843;-68
2023/11/21 00:12:42;;;;;;;14.77;6.18;;;;;;;;;;4990167;28;20050;-68
2023/11/21 00:15:10;;;;;;;16.63;6.70;;;;;;;;;;4989122;28;20093;-68
2023/11/21 00:17:36;;;;;;;18.85;7.25;;;;;;;;;;4990608;28;20073;-68
2023/11/21 00:20:01;;;;;;;19.40;7.28;;;;;;;;;;4986103;28;20047;-68
2023/11/21 00:22:26;;;;;;;26.48;7.82;;;;;;;;;;4984052;28;20019;-68
2023/11/21 00:24:52;;;;;;;20.57;7.90;;;;;;;;;;4972094;28;20019;-68
2023/11/21 00:27:17;;;;;;;23.98;7.85;;;;;;;;;;4989754;28;20253;-68
2023/11/21 00:29:42;;;;;;;24.15;8.48;;;;;;;;;;4989494;28;20440;-68
2023/11/21 00:32:08;;;;;;;21.15;7.40;;;;;;;;;;4989596;28;20044;-68
2023/11/21 00:34:33;;;;;;;27.20;8.82;;;;;;;;;;4989196;28;20385;-68
2023/11/21 00:36:58;;;;;;;28.43;8.83;;;;;;;;;;4983313;28;20424;-68
2023/11/21 00:39:23;;;;;;;33.85;8.60;;;;;;;;;;4986733;28;20296;-68
2023/11/21 00:41:49;;;;;;;28.10;8.02;;;;;;;;;;4991115;28;20026;-68
2023/11/21 00:44:14;;;;;;;16.35;7.75;;;;;;;;;;4991801;28;20015;-68
2023/11/21 00:46:39;;;;;;;18.73;8.30;;;;;;;;;;4992094;28;20497;-68
2023/11/21 00:49:04;;;;;;;17.75;8.18;;;;;;;;;;4991181;28;20105;-68
2023/11/21 00:51:30;;;;;;;17.33;8.00;;;;;;;;;;4988089;28;20105;-68
2023/11/21 00:53:55;;;;;;;28.75;8.52;;;;;;;;;;4986728;28;20018;-68
2023/11/21 00:56:21;;;;;;;27.83;8.80;;;;;;;;;;4982630;28;20062;-68
2023/11/21 00:58:49;;;;;;;23.20;8.20;;;;;;;;;;4985062;28;20019;-68
2023/11/21 01:01:14;;;;;;;19.02;7.88;;;;;;;;;;4971588;28;20027;-68
2023/11/21 01:03:40;;;;;;;26.13;9.25;;;;;;;;;;4986687;28;20532;-68
2023/11/21 01:06:07;;;;;;;21.53;8.57;;;;;;;;;;4984772;28;20026;-68
2023/11/21 01:08:33;;;;;;;27.65;8.52;;;;;;;;;;4988553;28;20665;-68
2023/11/21 01:10:58;;;;;;;26.08;8.73;;;;;;;;;;4988706;28;20010;-68
2023/11/21 01:13:23;;;;;;;26.75;8.43;;;;;;;;;;4989080;28;20507;-68
2023/11/21 01:15:48;;;;;;;26.95;8.77;;;;;;;;;;4989041;28;20030;-68
2023/11/21 01:18:13;;;;;;;20.83;9.15;;;;;;;;;;4985756;28;20026;-68
2023/11/21 01:20:39;;;;;;;35.38;9.40;;;;;;;;;;4971284;28;20018;-68
2023/11/21 01:23:04;;;;;;;20.65;9.15;;;;;;;;;;4988860;28;20030;-68
2023/11/21 01:25:30;;;;;;;21.73;9.33;;;;;;;;;;4989040;28;20540;-68
2023/11/21 01:27:56;;;;;;;23.02;9.30;;;;;;;;;;4988418;28;20253;-68
2023/11/21 01:30:21;;;;;;;24.92;8.45;;;;;;;;;;4989213;28;20007;-68
2023/11/21 01:32:47;;;;;;;28.50;9.95;;;;;;;;;;4988123;28;20015;-68
2023/11/21 01:35:12;;;;;;;27.40;10.57;;;;;;;;;;4987035;28;20026;-69
2023/11/21 01:37:38;;;;;;;22.33;9.30;;;;;;;;;;4990762;28;20504;-68
2023/11/21 01:40:08;;;;;;;24.50;8.50;;;;;;;;;;4989541;28;20269;-68
2023/11/21 01:42:34;;;;;;;28.10;10.90;;;;;;;;;;4990676;28;20018;-68
2023/11/21 01:44:59;;;;;;;22.92;9.43;;;;;;;;;;4990663;28;20026;-68
2023/11/21 01:47:25;;;;;;;29.03;8.60;;;;;;;;;;4988559;28;20440;-68
2023/11/21 01:49:51;;;;;;;24.58;9.07;;;;;;;;;;4985992;28;20261;-68
2023/11/21 01:52:16;;;;;;;28.60;10.35;;;;;;;;;;4985642;28;20531;-68
2023/11/21 01:54:42;;;;;;;21.52;9.02;;;;;;;;;;4971736;28;20034;-68
2023/11/21 01:57:07;;;;;;;23.48;9.60;;;;;;;;;;4989695;28;20030;-68
2023/11/21 01:59:37;;;;;;;20.00;8.93;;;;;;;;;;4989851;28;20024;-68
2023/11/21 02:02:04;;;;;;;18.23;8.40;;;;;;;;;;4987214;28;20044;-68
2023/11/21 02:04:29;;;;;;;17.40;9.10;;;;;;;;;;4974608;28;20254;-68
2023/11/21 02:06:56;;;;;;;31.20;9.52;;;;;;;;;;4990041;28;20033;-68
2023/11/21 02:09:25;;;;;;;21.33;9.30;;;;;;;;;;4989376;28;20014;-68
2023/11/21 02:11:51;;;;;;;19.98;8.57;;;;;;;;;;4989514;28;20092;-68
2023/11/21 02:14:18;;;;;;;26.80;9.55;;;;;;;;;;4989729;28;20076;-68
2023/11/21 02:16:46;;;;;;;19.17;9.05;;;;;;;;;;4982330;28;20099;-68
2023/11/21 02:19:17;;;;;;;20.58;9.77;;;;;;;;;;4971370;28;20378;-68
2023/11/21 02:21:42;;;;;;;27.45;9.48;;;;;;;;;;4989896;28;20377;-68
2023/11/21 02:24:08;;;;;;;23.60;9.90;;;;;;;;;;4989596;28;20026;-67
2023/11/21 02:26:33;;;;;;;29.77;10.85;;;;;;;;;;4989843;28;20026;-68
2023/11/21 02:32:01;;;;;;;29.73;10.32;;;;;;;;;;4981084;28;20381;-68
2023/11/21 02:34:26;;;;;;;29.30;9.67;;;;;;;;;;4987533;28;20023;-68
2023/11/21 02:36:51;;;;;;;33.37;10.57;;;;;;;;;;4990083;28;20604;-68
2023/11/21 02:39:17;;;;;;;31.60;10.75;;;;;;;;;;4993303;28;20344;-68
2023/11/21 02:41:42;;;;;;;31.63;10.43;;;;;;;;;;4992893;28;20049;-68
2023/11/21 02:44:08;;;;;;;30.35;11.45;;;;;;;;;;4975867;28;20133;-67
2023/11/21 02:46:33;;;;;;;22.95;9.40;;;;;;;;;;4986909;28;20018;-68
2023/11/21 02:49:10;;;;;;;24.80;9.60;;;;;;;;;;4982634;28;20019;-68
2023/11/21 02:51:35;;;;;;;24.13;9.98;;;;;;;;;;4979887;28;20014;-68
2023/11/21 02:54:02;;;;;;;30.30;11.63;;;;;;;;;;4993639;28;20022;-67
2023/11/21 02:56:28;;;;;;;35.10;11.48;;;;;;;;;;4986657;28;20022;-68
2023/11/21 02:58:55;;;;;;;31.33;10.00;;;;;;;;;;4976649;28;20466;-68
2023/11/21 03:01:20;;;;;;;29.45;9.77;;;;;;;;;;4977831;28;20489;-68
2023/11/21 03:03:47;;;;;;;28.40;9.60;;;;;;;;;;4981032;28;20029;-68
2023/11/21 03:06:12;;;;;;;23.23;9.48;;;;;;;;;;4993356;28;20102;-68
2023/11/21 03:08:37;;;;;;;22.47;9.83;;;;;;;;;;4979020;28;20097;-68
2023/11/21 03:11:03;;;;;;;27.70;10.40;;;;;;;;;;4982884;28;20795;-68
2023/11/21 03:13:28;;;;;;;30.75;9.18;;;;;;;;;;4993401;28;20093;-68
2023/11/21 03:15:54;;;;;;;23.98;9.63;;;;;;;;;;4993437;28;20098;-68
2023/11/21 03:18:19;;;;;;;18.73;8.80;;;;;;;;;;4981488;28;20026;-68
2023/11/21 03:20:46;;;;;;;25.00;8.67;;;;;;;;;;4979967;28;20452;-67
2023/11/21 03:23:11;;;;;;;22.10;8.65;;;;;;;;;;4993072;28;20281;-68
2023/11/21 03:25:36;;;;;;;18.75;8.25;;;;;;;;;;4993028;28;20080;-68
2023/11/21 03:28:01;;;;;;;28.80;8.20;;;;;;;;;;4982951;28;20097;-68
2023/11/21 03:30:26;;;;;;;20.70;8.20;;;;;;;;;;4977383;28;20091;-68
2023/11/21 03:32:52;;;;;;;21.30;7.83;;;;;;;;;;4993147;28;20265;-68
2023/11/21 03:35:20;;;;;;;22.13;8.30;;;;;;;;;;4993174;28;20628;-68
2023/11/21 03:37:46;;;;;;;22.33;7.80;;;;;;;;;;4986169;28;20022;-68
2023/11/21 03:40:12;;;;;;;17.70;8.10;;;;;;;;;;4973857;28;20383;-68
2023/11/21 03:42:37;;;;;;;21.90;8.77;;;;;;;;;;4992644;28;20285;-66
2023/11/21 03:45:02;;;;;;;16.58;7.68;;;;;;;;;;4992870;28;20019;-66
2023/11/21 03:47:28;;;;;;;22.95;8.30;;;;;;;;;;4988166;28;20037;-67
2023/11/21 03:49:53;;;;;;;22.52;7.95;;;;;;;;;;4973124;28;20099;-67
2023/11/21 03:52:18;;;;;;;20.50;8.00;;;;;;;;;;4990711;28;20057;-67
2023/11/21 03:54:43;;;;;;;20.98;8.45;;;;;;;;;;4992526;28;20261;-66
2023/11/21 03:57:09;;;;;;;24.42;8.80;;;;;;;;;;4990969;28;20026;-67
2023/11/21 03:59:34;;;;;;;23.20;8.73;;;;;;;;;;4972385;28;20027;-67
2023/11/21 04:01:59;;;;;;;20.45;9.05;;;;;;;;;;4988553;28;20085;-67
2023/11/21 04:04:24;;;;;;;20.37;8.67;;;;;;;;;;4991967;28;20026;-66
2023/11/21 04:06:51;;;;;;;20.50;9.35;;;;;;;;;;4992000;28;20258;-66
2023/11/21 04:09:16;;;;;;;23.23;8.65;;;;;;;;;;4979625;28;20105;-67
2023/11/21 04:11:42;;;;;;;26.83;8.63;;;;;;;;;;4978499;28;20097;-66
2023/11/21 04:14:08;;;;;;;18.88;8.57;;;;;;;;;;4992239;28;20253;-66
2023/11/21 04:16:33;;;;;;;30.60;9.77;;;;;;;;;;4991958;28;20022;-67
2023/11/21 04:18:58;;;;;;;30.43;9.80;;;;;;;;;;4975556;28;20070;-66
2023/11/21 04:21:24;;;;;;;30.20;10.18;;;;;;;;;;4983876;28;20314;-68
2023/11/21 04:23:49;;;;;;;30.60;10.68;;;;;;;;;;5000227;28;20473;-67
2023/11/21 04:26:14;;;;;;;27.45;9.75;;;;;;;;;;4992109;28;20093;-66
2023/11/21 04:28:39;;;;;;;24.27;10.73;;;;;;;;;;4985300;28;20085;-66
2023/11/21 04:31:05;;;;;;;22.27;10.47;;;;;;;;;;4973516;28;20760;-66
2023/11/21 04:33:31;;;;;;;31.23;10.45;;;;;;;;;;4991716;28;20246;-67
2023/11/21 04:35:56;;;;;;;34.13;11.32;;;;;;;;;;4974444;28;20025;-66
2023/11/21 04:38:21;;;;;;;26.02;10.50;;;;;;;;;;4990395;28;20030;-67
2023/11/21 04:40:47;;;;;;;36.42;11.63;;;;;;;;;;4996813;28;20018;-66
2023/11/21 04:43:12;;;;;;;26.83;10.50;;;;;;;;;;5009326;28;20022;-66
2023/11/21 04:45:38;;;;;;;31.50;10.83;;;;;;;;;;5009822;28;21017;-66
2023/11/21 04:48:03;;;;;;;26.60;11.45;;;;;;;;;;5000138;28;20283;-66
2023/11/21 04:50:29;;;;;;;34.28;11.57;;;;;;;;;;4990131;28;20424;-66
2023/11/21 04:52:54;;;;;;;30.65;11.80;;;;;;;;;;4991478;28;20026;-66
2023/11/21 04:55:19;;;;;;;25.23;9.57;;;;;;;;;;5008030;28;20026;-66
2023/11/21 04:57:45;;;;;;;29.80;10.65;;;;;;;;;;5003040;28;20874;-66
2023/11/21 05:00:10;;;;;;;28.35;10.18;;;;;;;;;;4990164;28;20024;-66
2023/11/21 05:02:35;;;;;;;28.23;10.05;;;;;;;;;;5004911;28;20026;-66
2023/11/21 05:05:01;;;;;;;23.77;9.13;;;;;;;;;;4991305;28;20022;-67
2023/11/21 05:07:28;;;;;;;28.90;8.63;;;;;;;;;;4989123;28;20649;-67
2023/11/21 05:09:54;;;;;;;29.83;9.38;;;;;;;;;;4976802;28;20015;-67
2023/11/21 05:12:19;;;;;;;25.35;9.10;;;;;;;;;;4982702;28;20110;-66
2023/11/21 05:14:44;;;;;;;20.97;9.27;;;;;;;;;;4991228;28;20650;-66
2023/11/21 05:17:09;;;;;;;26.77;9.18;;;;;;;;;;4989965;28;20264;-66
2023/11/21 05:19:38;;;;;;;21.27;9.37;;;;;;;;;;4972844;28;20027;-66
2023/11/21 05:22:04;;;;;;;18.80;8.88;;;;;;;;;;4987698;28;20285;-66
2023/11/21 05:24:29;;;;;;;21.83;8.75;;;;;;;;;;4991007;28;20045;-66
2023/11/21 05:26:54;;;;;;;27.98;10.23;;;;;;;;;;4973547;28;20101;-66
2023/11/21 05:29:19;;;;;;;31.63;9.00;;;;;;;;;;4973437;28;20065;-67
2023/11/21 05:31:44;;;;;;;21.93;8.57;;;;;;;;;;4984489;28;20272;-66
2023/11/21 05:34:09;;;;;;;19.93;8.03;;;;;;;;;;4990615;28;20755;-67
2023/11/21 05:36:35;;;;;;;19.60;7.50;;;;;;;;;;4990410;28;20254;-67
2023/11/21 05:39:00;;;;;;;21.97;8.70;;;;;;;;;;4982136;28;20276;-66
2023/11/21 05:41:25;;;;;;;20.88;8.18;;;;;;;;;;4981593;28;20340;-67
2023/11/21 05:43:50;;;;;;;25.85;9.57;;;;;;;;;;4990682;28;20045;-66
2023/11/21 05:46:16;;;;;;;20.67;8.57;;;;;;;;;;4990448;28;20018;-67
2023/11/21 05:48:42;;;;;;;26.35;9.52;;;;;;;;;;4988761;28;20949;-67
2023/11/21 05:51:08;;;;;;;26.02;9.25;;;;;;;;;;4975715;28;20011;-66
2023/11/21 05:53:33;;;;;;;20.95;8.77;;;;;;;;;;4990387;28;20386;-67
2023/11/21 05:55:58;;;;;;;22.23;9.52;;;;;;;;;;4990340;28;20048;-67
2023/11/21 05:58:24;;;;;;;28.27;8.70;;;;;;;;;;4975711;28;20076;-66
2023/11/21 06:00:49;;;;;;;27.85;9.40;;;;;;;;;;4976687;28;20018;-66
2023/11/21 06:03:14;;;;;;;26.75;9.30;;;;;;;;;;4987644;28;20026;-66
2023/11/21 06:05:39;;;;;;;21.87;9.27;;;;;;;;;;4978598;28;20027;-66
2023/11/21 06:08:04;;;;;;;31.43;10.47;;;;;;;;;;4978444;28;20382;-66
2023/11/21 06:10:29;;;;;;;31.00;11.17;;;;;;;;;;4988533;28;20253;-66
2023/11/21 06:12:55;;;;;;;22.90;9.87;;;;;;;;;;4988580;28;20246;-66
2023/11/21 06:15:22;;;;;;;20.43;9.67;;;;;;;;;;4987117;28;20380;-66
2023/11/21 06:17:49;;;;;;;30.80;10.07;;;;;;;;;;4983281;28;20277;-67
2023/11/21 06:20:15;;;;;;;26.20;9.82;;;;;;;;;;4972550;28;20057;-66
2023/11/21 06:22:41;;;;;;;34.63;11.18;;;;;;;;;;4982027;28;20054;-66
2023/11/21 06:25:07;;;;;;;41.88;10.82;;;;;;;;;;4981083;28;20038;-67
2023/11/21 06:27:34;;;;;;;24.60;11.10;;;;;;;;;;4983902;28;20026;-66
2023/11/21 06:29:59;;;;;;;26.40;9.52;;;;;;;;;;4976452;28;20026;-67
2023/11/21 06:32:24;;;;;;;28.25;10.45;;;;;;;;;;4971865;28;20022;-66
2023/11/21 06:34:49;;;;;;;36.37;9.87;;;;;;;;;;4983534;28;20046;-66
2023/11/21 06:37:15;;;;;;;29.95;10.18;;;;;;;;;;4982722;28;20277;-66
2023/11/21 06:39:40;;;;;;;27.10;10.43;;;;;;;;;;4981173;28;20485;-67
2023/11/21 06:42:05;;;;;;;32.15;10.80;;;;;;;;;;4976251;28;20105;-66
2023/11/21 06:44:30;;;;;;;24.35;9.63;;;;;;;;;;4977485;28;20014;-66
2023/11/21 06:46:56;;;;;;;23.55;10.63;;;;;;;;;;4988589;28;20029;-66
2023/11/21 06:49:21;;;;;;;27.38;10.30;;;;;;;;;;4975542;28;20038;-66
2023/11/21 06:51:46;;;;;;;36.00;10.57;;;;;;;;;;4977277;28;20029;-67
2023/11/21 06:54:11;;;;;;;30.60;10.63;;;;;;;;;;4984471;28;20022;-66
2023/11/21 06:56:38;;;;;;;26.77;10.50;;;;;;;;;;4988807;28;20105;-67
2023/11/21 06:59:05;;;;;;;37.60;12.45;;;;;;;;;;4972594;28;20761;-66
2023/11/21 07:01:32;;;;;;;41.60;11.80;;;;;;;;;;4982251;28;20024;-68
2023/11/21 07:03:58;;;;;;;27.77;10.30;;;;;;;;;;4989056;28;20018;-67
2023/11/21 07:06:23;;;;;;;32.80;10.80;;;;;;;;;;4989768;28;20073;-67
2023/11/21 07:08:48;;;;;;;31.95;10.70;;;;;;;;;;4979377;28;20784;-66
2023/11/21 07:11:13;;;;;;;26.30;10.30;;;;;;;;;;4981968;28;20030;-66
2023/11/21 07:13:38;;;;;;;30.40;11.63;;;;;;;;;;4973434;28;20258;-66
2023/11/21 07:16:04;;;;;;;36.63;11.88;;;;;;;;;;4987006;28;20077;-66
2023/11/21 07:18:29;;;;;;;50.33;12.88;;;;;;;;;;4978026;28;20050;-67
2023/11/21 07:20:54;;;;;;;41.20;12.75;;;;;;;;;;4978068;28;20029;-66
2023/11/21 07:23:21;;;;;;;38.07;12.63;;;;;;;;;;4990299;28;20030;-66
2023/11/21 07:25:47;;;;;;;43.13;13.32;;;;;;;;;;4986570;28;20266;-66
2023/11/21 07:28:12;;;;;;;65.05;14.88;;;;;;;;;;4977315;28;20019;-66
2023/11/21 07:30:37;;;;;;;67.50;15.13;;;;;;;;;;4989300;28;20496;-66
2023/11/21 07:33:02;;;;;;;41.30;13.40;;;;;;;;;;4979748;28;20274;-66
2023/11/21 07:35:28;;;;;;;51.00;14.80;;;;;;;;;;4978968;28;20513;-66
2023/11/21 07:37:53;;;;;;;55.77;14.87;;;;;;;;;;4992824;28;20343;-66
2023/11/21 07:40:18;;;;;;;50.65;14.02;;;;;;;;;;4992015;28;20787;-67
2023/11/21 07:42:43;;;;;;;53.37;15.33;;;;;;;;;;4980468;28;20030;-66
2023/11/21 07:45:08;;;;;;;75.65;16.65;;;;;;;;;;4989003;28;20272;-67
2023/11/21 07:47:34;;;;;;;59.25;15.68;;;;;;;;;;4989343;28;20038;-67
2023/11/21 07:49:59;;;;;;;52.22;15.52;;;;;;;;;;4975485;28;20011;-66
2023/11/21 07:52:24;;;;;;;52.85;16.80;;;;;;;;;;4990909;28;20053;-67
2023/11/21 07:54:50;;;;;;;56.93;17.50;;;;;;;;;;4993133;28;20425;-67
2023/11/21 07:57:16;;;;;;;52.20;15.75;;;;;;;;;;4992384;28;20261;-66
2023/11/21 07:59:41;;;;;;;51.88;16.35;;;;;;;;;;4980389;28;20031;-66
2023/11/21 08:02:06;;;;;;;52.00;16.50;;;;;;;;;;4988268;28;20058;-67
2023/11/21 08:04:32;;;;;;;62.83;18.63;;;;;;;;;;4992329;28;20030;-67
2023/11/21 08:06:57;;;;;;;67.97;20.00;;;;;;;;;;4992577;28;20536;-67
2023/11/21 08:09:23;;;;;;;72.80;20.00;;;;;;;;;;4984668;28;20026;-66
2023/11/21 08:11:48;;;;;;;76.07;24.02;;;;;;;;;;4985388;28;20034;-67
2023/11/21 08:14:14;;;;;;;70.30;19.00;;;;;;;;;;4984345;28;20018;-67
2023/11/21 08:16:39;;;;;;;57.20;17.63;;;;;;;;;;4975286;28;20594;-66
2023/11/21 08:19:06;;;;;;;65.83;19.87;;;;;;;;;;4989085;28;20097;-67
2023/11/21 08:21:31;;;;;;;60.78;18.30;;;;;;;;;;4990216;28;20354;-67
2023/11/21 08:23:56;;;;;;;78.27;19.87;;;;;;;;;;4977852;28;20474;-66
2023/11/21 08:26:21;;;;;;;71.35;19.90;;;;;;;;;;4984682;28;20261;-66
2023/11/21 08:28:47;;;;;;;60.35;19.00;;;;;;;;;;4991561;28;20021;-66
2023/11/21 08:31:12;;;;;;;59.13;17.85;;;;;;;;;;4991506;28;20026;-66
2023/11/21 08:33:38;;;;;;;76.07;18.27;;;;;;;;;;4980334;28;20010;-67
2023/11/21 08:36:06;;;;;;;74.23;21.77;;;;;;;;;;4979827;28;20080;-67
2023/11/21 08:38:32;;;;;;;67.85;20.10;;;;;;;;;;4991227;28;20262;-66
2023/11/21 08:40:57;;;;;;;95.50;26.10;;;;;;;;;;4991425;28;20499;-67
2023/11/21 08:43:22;;;;;;;89.93;25.13;;;;;;;;;;4983040;28;20649;-66
2023/11/21 08:45:47;;;;;;;98.78;28.55;;;;;;;;;;4978412;28;20345;-67
2023/11/21 08:48:13;;;;;;;91.40;26.30;;;;;;;;;;4978093;28;20030;-66
2023/11/21 08:50:38;;;;;;;83.80;24.33;;;;;;;;;;4974644;28;20337;-66
2023/11/21 08:53:03;;;;;;;103.10;26.45;;;;;;;;;;4988853;28;20038;-67
2023/11/21 08:55:28;;;;;;;113.07;29.67;;;;;;;;;;4991783;28;20030;-66
2023/11/21 08:57:53;;;;;;;96.82;26.08;;;;;;;;;;4991541;28;20262;-66
2023/11/21 09:00:18;;;;;;;111.82;29.05;;;;;;;;;;4979887;28;20030;-66
2023/11/21 09:02:44;;;;;;;104.18;27.20;;;;;;;;;;4978575;28;20027;-66
2023/11/21 09:05:10;;;;;;;102.18;26.58;;;;;;;;;;4976151;28;20430;-67
2023/11/21 09:07:38;;;;;;;106.05;27.63;;;;;;;;;;4991717;28;20053;-66
2023/11/21 09:10:04;;;;;;;86.95;25.38;;;;;;;;;;4990715;28;20072;-66
2023/11/21 09:12:29;;;;;;;104.47;25.33;;;;;;;;;;4987880;28;20038;-66
2023/11/21 09:14:54;;;;;;;106.03;23.85;;;;;;;;;;4974845;28;20358;-67
2023/11/21 09:17:19;;;;;;;86.53;24.43;;;;;;;;;;4990018;28;20481;-67
2023/11/21 09:19:51;;;;;;;87.30;24.33;;;;;;;;;;4990353;28;20296;-67
2023/11/21 09:22:16;;;;;;;99.15;24.85;;;;;;;;;;4989450;28;20081;-67
2023/11/21 09:24:42;;;;;;;98.82;26.42;;;;;;;;;;4978210;28;20015;-66
2023/11/21 09:27:07;;;;;;;101.60;28.25;;;;;;;;;;4976464;28;20382;-67
2023/11/21 09:29:32;;;;;;;88.93;25.10;;;;;;;;;;4977553;28;20030;-67
2023/11/21 09:32:01;;;;;;;90.80;26.00;;;;;;;;;;4990489;28;20250;-66
2023/11/21 09:34:26;;;;;;;97.45;26.20;;;;;;;;;;4989271;28;20018;-67
2023/11/21 09:36:51;;;;;;;96.15;25.55;;;;;;;;;;4985304;28;20162;-66
2023/11/21 09:39:18;;;;;;;103.53;27.38;;;;;;;;;;4978458;28;20117;-66
2023/11/21 09:41:45;;;;;;;88.20;25.52;;;;;;;;;;4981966;28;20018;-66
2023/11/21 09:44:13;;;;;;;104.38;29.08;;;;;;;;;;4990759;28;20531;-67
2023/11/21 09:46:40;;;;;;;85.88;25.17;;;;;;;;;;4988420;28;20030;-66
2023/11/21 09:49:11;;;;;;;104.00;26.60;;;;;;;;;;4988683;28;20022;-66
2023/11/21 09:51:38;;;;;;;85.57;25.35;;;;;;;;;;4983708;28;20034;-66
2023/11/21 09:54:08;;;;;;;96.00;26.33;;;;;;;;;;4983917;28;20474;-67
2023/11/21 09:56:34;;;;;;;;;;;;;;;;;;4976566;28;20038;-66
2023/11/21 09:59:04;;;;;;;98.55;27.02;;;;;;;;;;4983297;28;19928;-67
2023/11/21 10:01:29;;;;;;;92.70;25.02;;;;;;;;;;4984403;28;20469;-66
2023/11/21 10:03:56;;;;;;;78.90;23.45;;;;;;;;;;4973674;28;20107;-66
2023/11/21 10:06:23;;;;;;;76.40;24.25;;;;;;;;;;4977177;28;20366;-66
2023/11/21 10:08:50;;;;;;;76.05;25.52;;;;;;;;;;4988707;28;20022;-66
2023/11/21 10:11:17;;;;;;;82.13;24.98;;;;;;;;;;4989291;28;20117;-66
2023/11/21 10:13:43;;;;;;;85.93;22.95;;;;;;;;;;4974265;28;20019;-67
2023/11/21 10:16:11;;;;;;;102.90;29.83;;;;;;;;;;4987883;28;20030;-67
2023/11/21 10:18:39;;;;;;;94.38;27.55;;;;;;;;;;4989694;28;20015;-66
2023/11/21 10:21:05;;;;;;;82.80;29.42;;;;;;;;;;4989951;28;20480;-66
2023/11/21 10:23:31;;;;;;;91.50;27.33;;;;;;;;;;4981420;28;20026;-67
2023/11/21 10:25:59;;;;;;;83.05;25.75;;;;;;;;;;4977105;28;20064;-67
2023/11/21 10:28:24;;;;;;;89.05;27.40;;;;;;;;;;4989635;28;20632;-66
2023/11/21 10:30:49;;;;;;;87.77;27.67;;;;;;;;;;4989482;28;20141;-66
2023/11/21 10:33:14;;;;;;;88.50;28.13;;;;;;;;;;4989143;28;20281;-66
2023/11/21 10:35:42;;;;;;;92.90;29.57;;;;;;;;;;4976113;28;20815;-66
2023/11/21 10:38:10;;;;;;;75.88;25.77;;;;;;;;;;4975217;28;20254;-67
2023/11/21 10:40:42;;;;;;;95.05;29.95;;;;;;;;;;4989485;28;20035;-68
2023/11/21 10:43:10;;;;;;;96.30;30.42;;;;;;;;;;4989074;28;20041;-68
2023/11/21 10:45:37;;;;;;;86.35;28.60;;;;;;;;;;4978023;28;20479;-67
2023/11/21 10:48:04;;;;;;;89.07;29.52;;;;;;;;;;4986811;28;20060;-67
2023/11/21 10:50:29;;;;;;;84.65;25.75;;;;;;;;;;4974555;28;20089;-67
2023/11/21 10:52:54;;;;;;;80.00;25.33;;;;;;;;;;4979496;28;20437;-67
2023/11/21 10:55:21;;;;;;;91.10;26.45;;;;;;;;;;4989698;28;20276;-67
2023/11/21 10:57:48;;;;;;;78.55;23.20;;;;;;;;;;4984941;28;20034;-68
2023/11/21 11:00:14;;;;;;;86.57;26.92;;;;;;;;;;4983455;28;20022;-67
2023/11/21 11:02:40;;;;;;;86.18;26.55;;;;;;;;;;4978083;28;20505;-68
2023/11/21 11:05:06;;;;;;;84.07;27.73;;;;;;;;;;4990004;28;20022;-68
2023/11/21 11:07:33;;;;;;;87.85;27.52;;;;;;;;;;4979343;28;20045;-68
2023/11/21 11:10:00;;;;;;;100.28;27.80;;;;;;;;;;4989237;28;20088;-68
2023/11/21 11:12:25;;;;;;;86.25;27.45;;;;;;;;;;4990071;28;20053;-68
2023/11/21 11:14:51;;;;;;;85.75;27.35;;;;;;;;;;4991030;28;20448;-68
2023/11/21 11:17:16;;;;;;;84.03;26.77;;;;;;;;;;4980506;28;20031;-68
2023/11/21 11:19:42;;;;;;;96.55;25.73;;;;;;;;;;4987019;28;20025;-68
2023/11/21 11:22:26;;;;;;;93.65;28.25;;;;;;;;;;4992730;28;20034;-68
2023/11/21 11:25:14;;;;;;;84.35;26.10;;;;;;;;;;4990505;28;20026;-68
2023/11/21 11:27:58;;;;;;;81.63;24.40;;;;;;;;;;4984881;28;20048;-68
2023/11/21 11:30:28;;;;;;;83.45;29.23;;;;;;;;;;4986258;28;20025;-68
2023/11/21 11:33:00;;;;;;;98.63;26.50;;;;;;;;;;4979187;28;20018;-68
2023/11/21 11:35:25;;;;;;;85.00;25.65;;;;;;;;;;4993219;28;20081;-68
2023/11/21 11:37:50;;;;;;;86.05;26.75;;;;;;;;;;4993109;28;20030;-68
2023/11/21 11:40:15;;;;;;;93.10;28.02;;;;;;;;;;4979844;28;20030;-68
2023/11/21 11:42:55;;;;;;;90.63;28.30;;;;;;;;;;4986940;28;20057;-68
2023/11/21 11:45:20;;;;;;;106.15;30.05;;;;;;;;;;4992777;28;20046;-68
2023/11/21 11:47:47;;;;;;;97.17;28.13;;;;;;;;;;4992761;28;20073;-68
2023/11/21 11:50:19;;;;;;;96.38;27.08;;;;;;;;;;4979686;28;21043;-68
2023/11/21 11:52:48;;;;;;;86.47;25.95;;;;;;;;;;4987297;28;20037;-68
2023/11/21 11:55:15;;;;;;;97.70;28.17;;;;;;;;;;4992545;28;20552;-68
2023/11/21 11:57:41;;;;;;;102.35;30.10;;;;;;;;;;4992502;28;20041;-68
2023/11/21 12:00:18;;;;;;;103.95;30.25;;;;;;;;;;4981410;28;20108;-68
2023/11/21 12:02:47;;;;;;;86.95;26.92;;;;;;;;;;4990379;28;20554;-68
2023/11/21 12:05:13;;;;;;;97.88;27.58;;;;;;;;;;4992328;28;20026;-68
2023/11/21 12:07:49;;;;;;;100.13;29.40;;;;;;;;;;4992410;28;20065;-68
2023/11/21 12:10:17;;;;;;;96.30;27.00;;;;;;;;;;4983666;28;20440;-68
2023/11/21 12:12:44;;;;;;;85.97;27.17;;;;;;;;;;4982511;28;20031;-68
2023/11/21 12:15:09;;;;;;;91.88;26.42;;;;;;;;;;4978298;28;20050;-68
2023/11/21 12:17:34;;;;;;;89.00;27.30;;;;;;;;;;4992145;28;20057;-68
2023/11/21 12:20:04;;;;;;;97.57;27.50;;;;;;;;;;4991442;28;20053;-68
2023/11/21 12:22:30;;;;;;;87.32;26.70;;;;;;;;;;4980819;28;20375;-68
2023/11/21 12:24:56;;;;;;;85.22;26.90;;;;;;;;;;4984028;28;20030;-68
2023/11/21 12:27:21;;;;;;;99.25;27.02;;;;;;;;;;4992196;28;20033;-68
2023/11/21 12:29:46;;;;;;;92.33;26.13;;;;;;;;;;4992013;28;20428;-68
2023/11/21 12:32:11;;;;;;;104.10;27.43;;;;;;;;;;4983296;28;20285;-68
2023/11/21 12:34:38;;;;;;;85.95;27.25;;;;;;;;;;4982358;28;20261;-68
2023/11/21 12:37:03;;;;;;;86.53;26.27;;;;;;;;;;4991833;28;20072;-68
2023/11/21 12:39:29;;;;;;;80.77;26.07;;;;;;;;;;4991571;28;20033;-68
2023/11/21 12:41:54;;;;;;;79.25;25.98;;;;;;;;;;4983436;28;20681;-68
2023/11/21 12:44:19;;;;;;;83.80;26.27;;;;;;;;;;4980864;28;20014;-68
2023/11/21 12:46:45;;;;;;;88.78;25.08;;;;;;;;;;4991679;28;20052;-68
2023/11/21 12:49:17;;;;;;;89.35;24.73;;;;;;;;;;4991014;28;20033;-68
2023/11/21 12:51:42;;;;;;;98.97;28.95;;;;;;;;;;4986275;28;20026;-68
2023/11/21 12:54:09;;;;;;;83.43;25.20;;;;;;;;;;4978949;28;20393;-68
2023/11/21 12:56:37;;;;;;;85.10;25.02;;;;;;;;;;4991602;28;20043;-68
2023/11/21 12:59:04;;;;;;;87.00;26.20;;;;;;;;;;4988514;28;20105;-68
2023/11/21 13:01:31;;;;;;;68.93;23.08;;;;;;;;;;4987732;28;20032;-65
2023/11/21 13:03:57;;;;;;;85.45;24.75;;;;;;;;;;4976892;28;20058;-65
2023/11/21 13:06:24;;;;;;;76.47;27.13;;;;;;;;;;4979249;28;20018;-65
2023/11/21 13:08:50;;;;;;;90.20;25.25;;;;;;;;;;4986191;28;20397;-65
2023/11/21 13:11:15;;;;;;;75.25;22.83;;;;;;;;;;4990871;28;20026;-65
2023/11/21 13:13:42;;;;;;;68.30;22.73;;;;;;;;;;4991293;28;20064;-65
2023/11/21 13:16:08;;;;;;;65.65;20.23;;;;;;;;;;4979114;28;20814;-68
2023/11/21 13:18:33;;;;;;;53.67;17.17;;;;;;;;;;4985225;28;20053;-68
2023/11/21 13:21:02;;;;;;;68.75;18.88;;;;;;;;;;4990300;28;20029;-68
2023/11/21 13:23:29;;;;;;;59.53;18.17;;;;;;;;;;4988721;28;20018;-68
2023/11/21 13:25:54;;;;;;;64.47;17.45;;;;;;;;;;4980383;28;20018;-68
2023/11/21 13:28:21;;;;;;;70.18;19.98;;;;;;;;;;4985203;28;20018;-68
2023/11/21 13:30:48;;;;;;;59.40;20.67;;;;;;;;;;4984280;28;20022;-68
2023/11/21 13:33:17;;;;;;;62.10;17.50;;;;;;;;;;4983074;28;20026;-68
2023/11/21 13:35:43;;;;;;;58.55;19.88;;;;;;;;;;4990538;28;20580;-68
2023/11/21 13:38:09;;;;;;;68.57;21.48;;;;;;;;;;4990267;28;20157;-68
2023/11/21 13:40:34;;;;;;;75.78;21.15;;;;;;;;;;4986463;28;20113;-68
2023/11/21 13:43:04;;;;;;;71.03;22.42;;;;;;;;;;4976507;28;20065;-68
2023/11/21 13:45:29;;;;;;;74.67;22.27;;;;;;;;;;4988246;28;20019;-68
2023/11/21 13:47:58;;;;;;;69.20;22.45;;;;;;;;;;4990367;28;20037;-68
2023/11/21 13:50:32;;;;;;;80.70;21.42;;;;;;;;;;4987954;28;20030;-68
2023/11/21 13:53:08;;;;;;;73.00;19.90;;;;;;;;;;4979713;28;20050;-68
2023/11/21 13:55:33;;;;;;;74.95;22.58;;;;;;;;;;4977849;28;20481;-68
2023/11/21 13:58:00;;;;;;;69.80;20.52;;;;;;;;;;4988835;28;20021;-68
2023/11/21 14:03:17;;;;;;;74.68;22.65;;;;;;;;;;4987763;28;20555;-68
2023/11/21 14:05:43;;;;;;;73.50;21.67;;;;;;;;;;4990038;28;20018;-68
2023/11/21 14:08:08;;;;;;;72.18;22.10;;;;;;;;;;4989087;28;20021;-68
2023/11/21 14:10:43;;;;;;;86.15;22.73;;;;;;;;;;4976468;28;20493;-68
2023/11/21 14:13:12;;;;;;;72.63;22.08;;;;;;;;;;4982845;28;20109;-68
2023/11/21 14:15:41;;;;;;;71.57;21.10;;;;;;;;;;4990358;28;20020;-68
2023/11/21 14:18:10;;;;;;;64.57;22.90;;;;;;;;;;4989261;28;20018;-68
2023/11/21 14:20:36;;;;;;;70.15;21.17;;;;;;;;;;4979215;28;20422;-68